sensor_id;sensor_type;location;lat;lon;timestamp;temperature;humidity
13405;DHT22;6773;51.192;7.024;2023-02-05T00:02:07;6.50;99.90
13405;DHT22;6773;51.192;7.024;2023-02-05T00:04:34;6.50;99.90
13405;DHT22;6773;51.192;7.024;2023-02-05T00:07:00;6.50;99.90
13405;DHT22;6773;51.192;7.024;2023-02-05T00:09:26;6.40;99.90
13405;DHT22;6773;51.192;7.024;2023-02-05T00:11:53;6.40;99.90
13405;DHT22;6773;51.192;7.024;2023-02-05T00:14:19;6.40;99.90
13405;DHT22;6773;51.192;7.024;2023-02-05T00:16:45;6.40;99.90
13405;DHT22;6773;51.192;7.024;2023-02-05T00:24:02;6.30;99.90
13405;DHT22;6773;51.192;7.024;2023-02-05T00:31:21;6.50;99.90
13405;DHT22;6773;51.192;7.024;2023-02-05T00:33:48;6.50;99.90
13405;DHT22;6773;51.192;7.024;2023-02-05T00:36:14;6.50;99.90
13405;DHT22;6773;51.192;7.024;2023-02-05T00:38:41;6.50;99.90
13405;DHT22;6773;51.192;7.024;2023-02-05T00:41:08;6.50;99.90
13405;DHT22;6773;51.192;7.024;2023-02-05T00:43:34;6.50;99.90
13405;DHT22;6773;51.192;7.024;2023-02-05T00:45:59;6.40;99.90
13405;DHT22;6773;51.192;7.024;2023-02-05T00:50:51;6.40;99.90
13405;DHT22;6773;51.192;7.024;2023-02-05T00:53:18;6.30;99.90
13405;DHT22;6773;51.192;7.024;2023-02-05T00:55:44;6.30;99.90
13405;DHT22;6773;51.192;7.024;2023-02-05T00:58:10;6.40;99.90
13405;DHT22;6773;51.192;7.024;2023-02-05T01:00:36;6.40;99.90
13405;DHT22;6773;51.192;7.024;2023-02-05T01:03:01;6.40;99.90
13405;DHT22;6773;51.192;7.024;2023-02-05T01:05:27;6.40;99.90
13405;DHT22;6773;51.192;7.024;2023-02-05T01:07:55;6.40;99.90
13405;DHT22;6773;51.192;7.024;2023-02-05T01:10:21;6.30;99.90
13405;DHT22;6773;51.192;7.024;2023-02-05T01:12:48;6.30;99.90
13405;DHT22;6773;51.192;7.024;2023-02-05T01:20:08;6.20;99.90
13405;DHT22;6773;51.192;7.024;2023-02-05T01:25:01;6.00;99.90
13405;DHT22;6773;51.192;7.024;2023-02-05T01:27:27;5.80;99.90
13405;DHT22;6773;51.192;7.024;2023-02-05T01:32:18;5.70;99.90
13405;DHT22;6773;51.192;7.024;2023-02-05T01:37:10;5.60;99.90
13405;DHT22;6773;51.192;7.024;2023-02-05T01:39:36;5.70;99.90
13405;DHT22;6773;51.192;7.024;2023-02-05T01:42:22;5.70;99.90
13405;DHT22;6773;51.192;7.024;2023-02-05T01:47:55;5.70;99.90
13405;DHT22;6773;51.192;7.024;2023-02-05T01:50:28;5.70;99.90
13405;DHT22;6773;51.192;7.024;2023-02-05T01:52:57;5.60;99.90
13405;DHT22;6773;51.192;7.024;2023-02-05T01:55:25;5.70;99.90
13405;DHT22;6773;51.192;7.024;2023-02-05T01:57:52;5.70;99.90
13405;DHT22;6773;51.192;7.024;2023-02-05T02:00:19;5.70;99.90
13405;DHT22;6773;51.192;7.024;2023-02-05T02:02:45;5.70;99.90
13405;DHT22;6773;51.192;7.024;2023-02-05T02:05:14;5.70;99.90
13405;DHT22;6773;51.192;7.024;2023-02-05T02:07:40;5.70;99.90
13405;DHT22;6773;51.192;7.024;2023-02-05T02:10:08;5.70;99.90
13405;DHT22;6773;51.192;7.024;2023-02-05T02:12:37;5.70;99.90
13405;DHT22;6773;51.192;7.024;2023-02-05T02:15:16;5.60;99.90
13405;DHT22;6773;51.192;7.024;2023-02-05T02:17:44;5.70;99.90
13405;DHT22;6773;51.192;7.024;2023-02-05T02:20:14;5.60;99.90
13405;DHT22;6773;51.192;7.024;2023-02-05T02:23:04;6.30;99.90
13405;DHT22;6773;51.192;7.024;2023-02-05T02:28:58;5.70;99.90
13405;DHT22;6773;51.192;7.024;2023-02-05T02:31:39;5.70;99.90
13405;DHT22;6773;51.192;7.024;2023-02-05T02:34:12;5.70;99.90
13405;DHT22;6773;51.192;7.024;2023-02-05T02:36:55;5.70;99.90
13405;DHT22;6773;51.192;7.024;2023-02-05T02:41:58;5.80;99.90
13405;DHT22;6773;51.192;7.024;2023-02-05T02:44:32;5.80;99.90
13405;DHT22;6773;51.192;7.024;2023-02-05T02:47:03;5.80;99.90
13405;DHT22;6773;51.192;7.024;2023-02-05T02:49:47;5.80;99.90
13405;DHT22;6773;51.192;7.024;2023-02-05T02:52:18;5.70;99.90
13405;DHT22;6773;51.192;7.024;2023-02-05T02:54:48;5.80;99.90
13405;DHT22;6773;51.192;7.024;2023-02-05T02:57:16;5.80;99.90
13405;DHT22;6773;51.192;7.024;2023-02-05T02:59:46;5.80;99.90
13405;DHT22;6773;51.192;7.024;2023-02-05T03:02:13;5.70;99.90
13405;DHT22;6773;51.192;7.024;2023-02-05T03:04:43;5.70;99.90
13405;DHT22;6773;51.192;7.024;2023-02-05T03:07:27;5.70;99.90
13405;DHT22;6773;51.192;7.024;2023-02-05T03:10:02;5.70;99.90
13405;DHT22;6773;51.192;7.024;2023-02-05T03:14:57;5.60;99.90
13405;DHT22;6773;51.192;7.024;2023-02-05T03:17:24;5.70;99.90
13405;DHT22;6773;51.192;7.024;2023-02-05T03:20:03;5.60;99.90
13405;DHT22;6773;51.192;7.024;2023-02-05T03:22:30;5.60;99.90
13405;DHT22;6773;51.192;7.024;2023-02-05T03:27:22;5.60;99.90
13405;DHT22;6773;51.192;7.024;2023-02-05T03:29:48;5.60;99.90
13405;DHT22;6773;51.192;7.024;2023-02-05T03:35:05;5.60;99.90
13405;DHT22;6773;51.192;7.024;2023-02-05T03:40:16;5.60;99.90
13405;DHT22;6773;51.192;7.024;2023-02-05T03:56:28;5.60;99.90
13405;DHT22;6773;51.192;7.024;2023-02-05T03:58:56;5.60;99.90
13405;DHT22;6773;51.192;7.024;2023-02-05T04:01:23;5.60;99.90
13405;DHT22;6773;51.192;7.024;2023-02-05T04:03:50;5.60;99.90
13405;DHT22;6773;51.192;7.024;2023-02-05T04:06:16;5.50;99.90
13405;DHT22;6773;51.192;7.024;2023-02-05T04:11:11;5.50;99.90
13405;DHT22;6773;51.192;7.024;2023-02-05T04:13:36;5.50;99.90
13405;DHT22;6773;51.192;7.024;2023-02-05T04:16:02;5.40;99.90
13405;DHT22;6773;51.192;7.024;2023-02-05T04:18:27;5.40;99.90
13405;DHT22;6773;51.192;7.024;2023-02-05T04:20:53;5.50;99.90
13405;DHT22;6773;51.192;7.024;2023-02-05T04:23:18;5.50;99.90
13405;DHT22;6773;51.192;7.024;2023-02-05T04:28:10;5.50;99.90
13405;DHT22;6773;51.192;7.024;2023-02-05T04:30:37;5.50;99.90
13405;DHT22;6773;51.192;7.024;2023-02-05T04:35:29;5.50;99.90
13405;DHT22;6773;51.192;7.024;2023-02-05T04:42:46;5.50;99.90
13405;DHT22;6773;51.192;7.024;2023-02-05T04:45:12;5.60;99.90
13405;DHT22;6773;51.192;7.024;2023-02-05T04:47:38;5.60;99.90
13405;DHT22;6773;51.192;7.024;2023-02-05T04:50:04;7.60;99.90
13405;DHT22;6773;51.192;7.024;2023-02-05T04:54:55;5.70;99.90
13405;DHT22;6773;51.192;7.024;2023-02-05T05:02:14;5.70;99.90
13405;DHT22;6773;51.192;7.024;2023-02-05T05:07:07;5.80;99.90
13405;DHT22;6773;51.192;7.024;2023-02-05T05:09:35;7.90;99.90
13405;DHT22;6773;51.192;7.024;2023-02-05T05:12:00;5.80;99.90
13405;DHT22;6773;51.192;7.024;2023-02-05T05:19:18;5.90;99.90
13405;DHT22;6773;51.192;7.024;2023-02-05T05:21:44;6.00;99.90
13405;DHT22;6773;51.192;7.024;2023-02-05T05:24:10;6.00;99.90
13405;DHT22;6773;51.192;7.024;2023-02-05T05:29:03;6.10;99.90
13405;DHT22;6773;51.192;7.024;2023-02-05T05:33:56;6.10;99.90
13405;DHT22;6773;51.192;7.024;2023-02-05T05:36:22;6.10;99.90
13405;DHT22;6773;51.192;7.024;2023-02-05T05:41:21;6.10;99.90
13405;DHT22;6773;51.192;7.024;2023-02-05T05:44:05;6.10;99.90
13405;DHT22;6773;51.192;7.024;2023-02-05T05:46:31;6.10;99.90
13405;DHT22;6773;51.192;7.024;2023-02-05T05:48:59;6.10;99.90
13405;DHT22;6773;51.192;7.024;2023-02-05T05:51:26;6.10;99.90
13405;DHT22;6773;51.192;7.024;2023-02-05T05:53:52;6.00;99.90
13405;DHT22;6773;51.192;7.024;2023-02-05T05:56:19;6.10;99.90
13405;DHT22;6773;51.192;7.024;2023-02-05T05:58:45;6.00;99.90
13405;DHT22;6773;51.192;7.024;2023-02-05T06:01:13;6.10;99.90
13405;DHT22;6773;51.192;7.024;2023-02-05T06:06:07;6.00;99.90
13405;DHT22;6773;51.192;7.024;2023-02-05T06:08:33;6.00;99.90
13405;DHT22;6773;51.192;7.024;2023-02-05T06:10:59;6.00;99.90
13405;DHT22;6773;51.192;7.024;2023-02-05T06:13:25;6.10;99.90
13405;DHT22;6773;51.192;7.024;2023-02-05T06:15:51;6.00;99.90
13405;DHT22;6773;51.192;7.024;2023-02-05T06:18:17;6.10;99.90
13405;DHT22;6773;51.192;7.024;2023-02-05T06:20:43;6.10;99.90
13405;DHT22;6773;51.192;7.024;2023-02-05T06:23:09;6.10;99.90
13405;DHT22;6773;51.192;7.024;2023-02-05T06:28:00;6.10;99.90
13405;DHT22;6773;51.192;7.024;2023-02-05T06:30:26;6.20;99.90
13405;DHT22;6773;51.192;7.024;2023-02-05T06:35:18;6.20;99.90
13405;DHT22;6773;51.192;7.024;2023-02-05T06:37:43;6.20;99.90
13405;DHT22;6773;51.192;7.024;2023-02-05T06:40:09;6.30;99.90
13405;DHT22;6773;51.192;7.024;2023-02-05T06:45:02;6.30;99.90
13405;DHT22;6773;51.192;7.024;2023-02-05T06:47:28;6.30;99.90
13405;DHT22;6773;51.192;7.024;2023-02-05T06:49:53;6.30;99.90
13405;DHT22;6773;51.192;7.024;2023-02-05T06:52:19;6.30;99.90
13405;DHT22;6773;51.192;7.024;2023-02-05T06:54:44;6.30;99.90
13405;DHT22;6773;51.192;7.024;2023-02-05T06:57:10;6.30;99.90
13405;DHT22;6773;51.192;7.024;2023-02-05T06:59:36;6.30;99.90
13405;DHT22;6773;51.192;7.024;2023-02-05T07:02:02;6.30;99.90
13405;DHT22;6773;51.192;7.024;2023-02-05T07:04:27;6.30;99.90
13405;DHT22;6773;51.192;7.024;2023-02-05T07:06:58;6.30;99.90
13405;DHT22;6773;51.192;7.024;2023-02-05T07:09:24;6.30;99.90
13405;DHT22;6773;51.192;7.024;2023-02-05T07:11:50;6.30;99.90
13405;DHT22;6773;51.192;7.024;2023-02-05T07:14:16;6.30;99.90
13405;DHT22;6773;51.192;7.024;2023-02-05T07:16:42;6.30;99.90
13405;DHT22;6773;51.192;7.024;2023-02-05T07:19:07;6.30;99.90
13405;DHT22;6773;51.192;7.024;2023-02-05T07:21:34;6.30;99.90
13405;DHT22;6773;51.192;7.024;2023-02-05T07:24:00;6.30;99.90
13405;DHT22;6773;51.192;7.024;2023-02-05T07:26:25;6.20;99.90
13405;DHT22;6773;51.192;7.024;2023-02-05T07:31:18;6.20;99.90
13405;DHT22;6773;51.192;7.024;2023-02-05T07:33:47;6.20;99.90
13405;DHT22;6773;51.192;7.024;2023-02-05T07:36:16;6.20;99.90
13405;DHT22;6773;51.192;7.024;2023-02-05T07:38:43;6.20;99.90
13405;DHT22;6773;51.192;7.024;2023-02-05T07:41:11;6.20;99.90
13405;DHT22;6773;51.192;7.024;2023-02-05T07:43:37;6.20;99.90
13405;DHT22;6773;51.192;7.024;2023-02-05T07:46:06;6.20;99.90
13405;DHT22;6773;51.192;7.024;2023-02-05T07:48:32;6.30;99.90
13405;DHT22;6773;51.192;7.024;2023-02-05T07:50:58;6.20;99.90
13405;DHT22;6773;51.192;7.024;2023-02-05T07:53:24;6.20;99.90
13405;DHT22;6773;51.192;7.024;2023-02-05T07:55:50;6.20;99.90
13405;DHT22;6773;51.192;7.024;2023-02-05T07:58:16;6.20;99.90
13405;DHT22;6773;51.192;7.024;2023-02-05T08:00:42;6.20;99.90
13405;DHT22;6773;51.192;7.024;2023-02-05T08:03:07;6.10;99.90
13405;DHT22;6773;51.192;7.024;2023-02-05T08:05:34;6.20;99.90
13405;DHT22;6773;51.192;7.024;2023-02-05T08:08:00;6.10;99.90
13405;DHT22;6773;51.192;7.024;2023-02-05T08:10:26;6.20;99.90
13405;DHT22;6773;51.192;7.024;2023-02-05T08:12:51;6.10;99.90
13405;DHT22;6773;51.192;7.024;2023-02-05T08:15:17;6.10;99.90
13405;DHT22;6773;51.192;7.024;2023-02-05T08:17:42;6.00;99.90
13405;DHT22;6773;51.192;7.024;2023-02-05T08:20:09;6.10;99.90
13405;DHT22;6773;51.192;7.024;2023-02-05T08:22:40;6.10;99.90
13405;DHT22;6773;51.192;7.024;2023-02-05T08:25:08;6.10;99.90
13405;DHT22;6773;51.192;7.024;2023-02-05T08:27:36;6.10;99.90
13405;DHT22;6773;51.192;7.024;2023-02-05T08:30:04;6.00;99.90
13405;DHT22;6773;51.192;7.024;2023-02-05T08:34:56;6.00;99.90
13405;DHT22;6773;51.192;7.024;2023-02-05T08:37:23;6.10;99.90
13405;DHT22;6773;51.192;7.024;2023-02-05T08:42:15;6.10;99.90
13405;DHT22;6773;51.192;7.024;2023-02-05T08:44:41;6.20;99.90
13405;DHT22;6773;51.192;7.024;2023-02-05T08:47:07;6.10;99.90
13405;DHT22;6773;51.192;7.024;2023-02-05T08:49:32;6.10;99.90
13405;DHT22;6773;51.192;7.024;2023-02-05T08:51:58;6.10;99.90
13405;DHT22;6773;51.192;7.024;2023-02-05T08:54:24;6.00;99.90
13405;DHT22;6773;51.192;7.024;2023-02-05T08:56:50;5.90;99.90
13405;DHT22;6773;51.192;7.024;2023-02-05T08:59:16;5.90;99.90
13405;DHT22;6773;51.192;7.024;2023-02-05T09:01:43;5.80;99.90
13405;DHT22;6773;51.192;7.024;2023-02-05T09:04:17;5.80;99.90
13405;DHT22;6773;51.192;7.024;2023-02-05T09:06:43;5.80;99.90
13405;DHT22;6773;51.192;7.024;2023-02-05T09:09:09;5.70;99.90
13405;DHT22;6773;51.192;7.024;2023-02-05T09:11:35;5.60;99.90
13405;DHT22;6773;51.192;7.024;2023-02-05T09:14:01;5.50;99.90
13405;DHT22;6773;51.192;7.024;2023-02-05T09:16:27;5.50;99.90
13405;DHT22;6773;51.192;7.024;2023-02-05T09:18:53;5.40;99.90
13405;DHT22;6773;51.192;7.024;2023-02-05T09:21:20;5.50;99.90
13405;DHT22;6773;51.192;7.024;2023-02-05T09:23:46;5.50;99.90
13405;DHT22;6773;51.192;7.024;2023-02-05T09:26:12;5.40;99.90
13405;DHT22;6773;51.192;7.024;2023-02-05T09:28:38;5.50;99.90
13405;DHT22;6773;51.192;7.024;2023-02-05T09:31:12;5.40;99.90
13405;DHT22;6773;51.192;7.024;2023-02-05T09:33:37;5.50;99.90
13405;DHT22;6773;51.192;7.024;2023-02-05T09:36:08;5.40;99.90
13405;DHT22;6773;51.192;7.024;2023-02-05T09:38:35;5.40;99.90
13405;DHT22;6773;51.192;7.024;2023-02-05T09:41:13;5.40;99.90
13405;DHT22;6773;51.192;7.024;2023-02-05T09:43:56;5.50;99.90
13405;DHT22;6773;51.192;7.024;2023-02-05T09:51:46;5.50;99.90
13405;DHT22;6773;51.192;7.024;2023-02-05T09:54:37;5.50;99.90
13405;DHT22;6773;51.192;7.024;2023-02-05T09:57:07;5.50;99.90
13405;DHT22;6773;51.192;7.024;2023-02-05T09:59:36;5.50;99.90
13405;DHT22;6773;51.192;7.024;2023-02-05T10:02:21;5.40;99.90
13405;DHT22;6773;51.192;7.024;2023-02-05T10:04:50;5.40;99.90
13405;DHT22;6773;51.192;7.024;2023-02-05T10:07:24;5.50;99.90
13405;DHT22;6773;51.192;7.024;2023-02-05T10:10:47;5.50;99.90
13405;DHT22;6773;51.192;7.024;2023-02-05T10:18:55;5.50;99.90
13405;DHT22;6773;51.192;7.024;2023-02-05T10:24:35;5.40;99.90
13405;DHT22;6773;51.192;7.024;2023-02-05T10:27:22;5.50;99.90
13405;DHT22;6773;51.192;7.024;2023-02-05T10:30:11;5.50;99.90
13405;DHT22;6773;51.192;7.024;2023-02-05T10:32:57;5.50;99.90
13405;DHT22;6773;51.192;7.024;2023-02-05T10:35:41;5.60;99.90
13405;DHT22;6773;51.192;7.024;2023-02-05T10:38:23;5.50;99.90
13405;DHT22;6773;51.192;7.024;2023-02-05T10:40:52;5.60;99.90
13405;DHT22;6773;51.192;7.024;2023-02-05T10:43:47;5.50;99.90
13405;DHT22;6773;51.192;7.024;2023-02-05T10:46:15;5.60;99.90
13405;DHT22;6773;51.192;7.024;2023-02-05T10:48:51;5.60;99.90
13405;DHT22;6773;51.192;7.024;2023-02-05T10:51:39;5.50;99.90
13405;DHT22;6773;51.192;7.024;2023-02-05T10:56:48;5.50;99.90
13405;DHT22;6773;51.192;7.024;2023-02-05T10:59:35;5.60;99.90
13405;DHT22;6773;51.192;7.024;2023-02-05T11:02:06;5.50;99.90
13405;DHT22;6773;51.192;7.024;2023-02-05T11:04:43;5.50;99.90
13405;DHT22;6773;51.192;7.024;2023-02-05T11:07:19;5.70;99.90
13405;DHT22;6773;51.192;7.024;2023-02-05T11:09:47;5.60;99.90
13405;DHT22;6773;51.192;7.024;2023-02-05T11:12:26;5.60;99.90
13405;DHT22;6773;51.192;7.024;2023-02-05T11:14:58;5.60;99.90
13405;DHT22;6773;51.192;7.024;2023-02-05T11:17:37;5.60;99.90
13405;DHT22;6773;51.192;7.024;2023-02-05T11:20:21;5.70;99.90
13405;DHT22;6773;51.192;7.024;2023-02-05T11:22:48;5.70;99.90
13405;DHT22;6773;51.192;7.024;2023-02-05T11:28:03;5.80;99.90
13405;DHT22;6773;51.192;7.024;2023-02-05T11:30:31;5.60;99.90
13405;DHT22;6773;51.192;7.024;2023-02-05T11:40:57;5.70;99.90
13405;DHT22;6773;51.192;7.024;2023-02-05T11:43:35;5.70;99.90
13405;DHT22;6773;51.192;7.024;2023-02-05T11:46:05;5.70;99.90
13405;DHT22;6773;51.192;7.024;2023-02-05T11:48:38;5.70;99.90
13405;DHT22;6773;51.192;7.024;2023-02-05T11:51:07;5.70;99.90
13405;DHT22;6773;51.192;7.024;2023-02-05T11:53:34;5.80;99.90
13405;DHT22;6773;51.192;7.024;2023-02-05T11:56:06;5.70;99.90
13405;DHT22;6773;51.192;7.024;2023-02-05T11:58:32;5.80;99.90
13405;DHT22;6773;51.192;7.024;2023-02-05T12:01:05;5.70;99.90
13405;DHT22;6773;51.192;7.024;2023-02-05T12:03:32;5.70;99.90
13405;DHT22;6773;51.192;7.024;2023-02-05T12:06:16;5.70;99.90
13405;DHT22;6773;51.192;7.024;2023-02-05T12:08:49;5.70;99.90
13405;DHT22;6773;51.192;7.024;2023-02-05T12:14:58;5.60;99.90
13405;DHT22;6773;51.192;7.024;2023-02-05T12:20:41;5.60;99.90
13405;DHT22;6773;51.192;7.024;2023-02-05T12:36:58;5.50;99.90
13405;DHT22;6773;51.192;7.024;2023-02-05T12:42:08;5.60;99.90
13405;DHT22;6773;51.192;7.024;2023-02-05T12:47:54;5.60;99.90
13405;DHT22;6773;51.192;7.024;2023-02-05T12:53:27;5.60;99.90
13405;DHT22;6773;51.192;7.024;2023-02-05T12:58:45;5.50;99.90
13405;DHT22;6773;51.192;7.024;2023-02-05T13:01:16;5.50;99.90
13405;DHT22;6773;51.192;7.024;2023-02-05T13:03:48;5.50;99.90
13405;DHT22;6773;51.192;7.024;2023-02-05T13:06:22;5.50;99.90
13405;DHT22;6773;51.192;7.024;2023-02-05T13:11:33;5.50;99.90
13405;DHT22;6773;51.192;7.024;2023-02-05T13:14:05;5.50;99.90
13405;DHT22;6773;51.192;7.024;2023-02-05T13:16:42;5.60;99.90
13405;DHT22;6773;51.192;7.024;2023-02-05T13:21:56;5.50;99.90
13405;DHT22;6773;51.192;7.024;2023-02-05T13:24:53;5.50;99.90
13405;DHT22;6773;51.192;7.024;2023-02-05T13:27:49;5.50;99.90
13405;DHT22;6773;51.192;7.024;2023-02-05T13:30:41;5.40;99.90
13405;DHT22;6773;51.192;7.024;2023-02-05T13:33:08;5.40;99.90
13405;DHT22;6773;51.192;7.024;2023-02-05T13:36:23;5.40;99.90
13405;DHT22;6773;51.192;7.024;2023-02-05T13:59:01;5.30;99.90
13405;DHT22;6773;51.192;7.024;2023-02-05T14:01:31;5.20;99.90
13405;DHT22;6773;51.192;7.024;2023-02-05T14:04:07;5.20;99.90
13405;DHT22;6773;51.192;7.024;2023-02-05T14:06:40;5.20;99.90
13405;DHT22;6773;51.192;7.024;2023-02-05T14:09:08;5.20;99.90
13405;DHT22;6773;51.192;7.024;2023-02-05T14:11:57;5.20;99.90
13405;DHT22;6773;51.192;7.024;2023-02-05T14:14:32;5.20;99.90
13405;DHT22;6773;51.192;7.024;2023-02-05T14:17:00;5.20;99.90
13405;DHT22;6773;51.192;7.024;2023-02-05T14:22:43;5.20;99.90
13405;DHT22;6773;51.192;7.024;2023-02-05T14:25:44;5.20;99.90
13405;DHT22;6773;51.192;7.024;2023-02-05T14:30:51;5.20;99.90
13405;DHT22;6773;51.192;7.024;2023-02-05T14:33:38;5.20;99.90
13405;DHT22;6773;51.192;7.024;2023-02-05T14:38:44;5.20;99.90
13405;DHT22;6773;51.192;7.024;2023-02-05T14:41:15;5.20;99.90
13405;DHT22;6773;51.192;7.024;2023-02-05T14:43:44;5.20;99.90
13405;DHT22;6773;51.192;7.024;2023-02-05T14:46:28;5.20;99.90
13405;DHT22;6773;51.192;7.024;2023-02-05T14:48:54;5.20;99.90
13405;DHT22;6773;51.192;7.024;2023-02-05T14:51:33;5.20;99.90
13405;DHT22;6773;51.192;7.024;2023-02-05T14:54:17;5.20;99.90
13405;DHT22;6773;51.192;7.024;2023-02-05T15:08:15;5.30;99.90
13405;DHT22;6773;51.192;7.024;2023-02-05T15:10:52;5.40;99.90
13405;DHT22;6773;51.192;7.024;2023-02-05T15:13:21;5.30;99.90
13405;DHT22;6773;51.192;7.024;2023-02-05T15:23:57;5.40;99.90
13405;DHT22;6773;51.192;7.024;2023-02-05T15:29:06;5.40;99.90
13405;DHT22;6773;51.192;7.024;2023-02-05T15:31:44;5.50;99.90
13405;DHT22;6773;51.192;7.024;2023-02-05T15:36:55;5.50;99.90
13405;DHT22;6773;51.192;7.024;2023-02-05T15:41:54;5.60;99.90
13405;DHT22;6773;51.192;7.024;2023-02-05T15:44:26;7.20;99.90
13405;DHT22;6773;51.192;7.024;2023-02-05T15:49:21;5.50;99.90
13405;DHT22;6773;51.192;7.024;2023-02-05T15:51:48;5.50;99.90
13405;DHT22;6773;51.192;7.024;2023-02-05T15:54:18;5.50;99.90
13405;DHT22;6773;51.192;7.024;2023-02-05T15:56:48;6.00;99.90
13405;DHT22;6773;51.192;7.024;2023-02-05T15:59:19;5.80;99.90
13405;DHT22;6773;51.192;7.024;2023-02-05T16:02:00;5.80;99.90
13405;DHT22;6773;51.192;7.024;2023-02-05T16:04:37;5.60;99.90
13405;DHT22;6773;51.192;7.024;2023-02-05T16:07:21;5.60;99.90
13405;DHT22;6773;51.192;7.024;2023-02-05T16:09:49;5.70;99.90
13405;DHT22;6773;51.192;7.024;2023-02-05T16:12:16;5.60;99.90
13405;DHT22;6773;51.192;7.024;2023-02-05T16:14:42;5.50;99.90
13405;DHT22;6773;51.192;7.024;2023-02-05T16:17:18;5.50;99.90
13405;DHT22;6773;51.192;7.024;2023-02-05T16:19:52;5.50;99.90
13405;DHT22;6773;51.192;7.024;2023-02-05T16:22:37;5.50;99.90
13405;DHT22;6773;51.192;7.024;2023-02-05T16:28:00;5.40;99.90
13405;DHT22;6773;51.192;7.024;2023-02-05T16:32:58;5.40;99.90
13405;DHT22;6773;51.192;7.024;2023-02-05T16:35:33;5.40;99.90
13405;DHT22;6773;51.192;7.024;2023-02-05T16:38:00;5.50;99.90
13405;DHT22;6773;51.192;7.024;2023-02-05T16:40:43;5.40;99.90
13405;DHT22;6773;51.192;7.024;2023-02-05T16:50:59;5.40;99.90
13405;DHT22;6773;51.192;7.024;2023-02-05T16:53:36;5.40;99.90
13405;DHT22;6773;51.192;7.024;2023-02-05T16:56:12;5.30;99.90
13405;DHT22;6773;51.192;7.024;2023-02-05T16:58:47;5.30;99.90
13405;DHT22;6773;51.192;7.024;2023-02-05T17:01:24;5.30;99.90
13405;DHT22;6773;51.192;7.024;2023-02-05T17:03:52;5.20;99.90
13405;DHT22;6773;51.192;7.024;2023-02-05T17:06:19;5.20;99.90
13405;DHT22;6773;51.192;7.024;2023-02-05T17:08:53;5.30;99.90
13405;DHT22;6773;51.192;7.024;2023-02-05T17:11:41;5.30;99.90
13405;DHT22;6773;51.192;7.024;2023-02-05T17:14:28;5.30;99.90
13405;DHT22;6773;51.192;7.024;2023-02-05T17:17:14;5.20;99.90
13405;DHT22;6773;51.192;7.024;2023-02-05T17:24:38;5.20;99.90
13405;DHT22;6773;51.192;7.024;2023-02-05T17:27:04;5.20;99.90
13405;DHT22;6773;51.192;7.024;2023-02-05T17:29:31;5.10;99.90
13405;DHT22;6773;51.192;7.024;2023-02-05T17:31:58;5.10;99.90
13405;DHT22;6773;51.192;7.024;2023-02-05T17:36:49;5.00;99.90
13405;DHT22;6773;51.192;7.024;2023-02-05T17:39:16;5.00;99.90
13405;DHT22;6773;51.192;7.024;2023-02-05T17:46:53;5.00;99.90
13405;DHT22;6773;51.192;7.024;2023-02-05T17:49:18;4.90;99.90
13405;DHT22;6773;51.192;7.024;2023-02-05T17:51:44;5.00;99.90
13405;DHT22;6773;51.192;7.024;2023-02-05T17:54:21;5.00;99.90
13405;DHT22;6773;51.192;7.024;2023-02-05T17:59:16;5.10;99.90
13405;DHT22;6773;51.192;7.024;2023-02-05T18:04:09;5.00;99.90
13405;DHT22;6773;51.192;7.024;2023-02-05T18:06:36;5.00;99.90
13405;DHT22;6773;51.192;7.024;2023-02-05T18:09:02;5.00;99.90
13405;DHT22;6773;51.192;7.024;2023-02-05T18:11:28;5.00;99.90
13405;DHT22;6773;51.192;7.024;2023-02-05T18:13:54;5.00;99.90
13405;DHT22;6773;51.192;7.024;2023-02-05T18:18:45;5.00;99.90
13405;DHT22;6773;51.192;7.024;2023-02-05T18:21:12;5.00;99.90
13405;DHT22;6773;51.192;7.024;2023-02-05T18:23:37;5.00;99.90
13405;DHT22;6773;51.192;7.024;2023-02-05T18:26:04;5.00;99.90
13405;DHT22;6773;51.192;7.024;2023-02-05T18:28:30;5.00;99.90
13405;DHT22;6773;51.192;7.024;2023-02-05T18:31:00;5.10;99.90
13405;DHT22;6773;51.192;7.024;2023-02-05T18:33:26;5.00;99.90
13405;DHT22;6773;51.192;7.024;2023-02-05T18:38:18;5.10;99.90
13405;DHT22;6773;51.192;7.024;2023-02-05T18:40:46;5.10;99.90
13405;DHT22;6773;51.192;7.024;2023-02-05T18:43:11;5.10;99.90
13405;DHT22;6773;51.192;7.024;2023-02-05T18:45:38;5.10;99.90
13405;DHT22;6773;51.192;7.024;2023-02-05T18:48:04;5.10;99.90
13405;DHT22;6773;51.192;7.024;2023-02-05T18:52:55;5.10;99.90
13405;DHT22;6773;51.192;7.024;2023-02-05T18:55:21;5.10;99.90
13405;DHT22;6773;51.192;7.024;2023-02-05T19:00:13;5.10;99.90
13405;DHT22;6773;51.192;7.024;2023-02-05T19:05:06;5.10;99.90
13405;DHT22;6773;51.192;7.024;2023-02-05T19:07:33;5.10;99.90
13405;DHT22;6773;51.192;7.024;2023-02-05T19:09:58;5.00;99.90
13405;DHT22;6773;51.192;7.024;2023-02-05T19:12:24;5.10;99.90
13405;DHT22;6773;51.192;7.024;2023-02-05T19:14:50;5.20;99.90
13405;DHT22;6773;51.192;7.024;2023-02-05T19:17:16;5.20;99.90
13405;DHT22;6773;51.192;7.024;2023-02-05T19:19:42;5.10;99.90
13405;DHT22;6773;51.192;7.024;2023-02-05T19:22:07;5.10;99.90
13405;DHT22;6773;51.192;7.024;2023-02-05T19:29:27;5.10;99.90
13405;DHT22;6773;51.192;7.024;2023-02-05T19:31:53;5.10;99.90
13405;DHT22;6773;51.192;7.024;2023-02-05T19:36:46;5.10;99.90
13405;DHT22;6773;51.192;7.024;2023-02-05T19:39:13;5.10;99.90
13405;DHT22;6773;51.192;7.024;2023-02-05T19:41:40;5.10;99.90
13405;DHT22;6773;51.192;7.024;2023-02-05T19:46:39;5.10;99.90
13405;DHT22;6773;51.192;7.024;2023-02-05T19:49:19;5.10;99.90
13405;DHT22;6773;51.192;7.024;2023-02-05T19:51:51;5.00;99.90
13405;DHT22;6773;51.192;7.024;2023-02-05T19:54:18;5.10;99.90
13405;DHT22;6773;51.192;7.024;2023-02-05T20:01:38;5.00;99.90
13405;DHT22;6773;51.192;7.024;2023-02-05T20:06:36;5.00;99.90
13405;DHT22;6773;51.192;7.024;2023-02-05T20:09:04;4.90;99.90
13405;DHT22;6773;51.192;7.024;2023-02-05T20:11:39;5.00;99.90
13405;DHT22;6773;51.192;7.024;2023-02-05T20:14:06;5.00;99.90
13405;DHT22;6773;51.192;7.024;2023-02-05T20:16:32;4.90;99.90
13405;DHT22;6773;51.192;7.024;2023-02-05T20:18:59;4.90;99.90
13405;DHT22;6773;51.192;7.024;2023-02-05T20:21:27;4.90;99.90
13405;DHT22;6773;51.192;7.024;2023-02-05T20:26:20;4.90;99.90
13405;DHT22;6773;51.192;7.024;2023-02-05T20:28:48;4.90;99.90
13405;DHT22;6773;51.192;7.024;2023-02-05T20:31:34;4.80;99.90
13405;DHT22;6773;51.192;7.024;2023-02-05T20:34:04;4.70;99.90
13405;DHT22;6773;51.192;7.024;2023-02-05T20:36:32;4.60;99.90
13405;DHT22;6773;51.192;7.024;2023-02-05T20:38:59;4.60;99.90
13405;DHT22;6773;51.192;7.024;2023-02-05T20:46:18;4.60;99.90
13405;DHT22;6773;51.192;7.024;2023-02-05T20:48:43;4.50;99.90
13405;DHT22;6773;51.192;7.024;2023-02-05T20:51:12;4.50;99.90
13405;DHT22;6773;51.192;7.024;2023-02-05T20:53:38;4.50;99.90
13405;DHT22;6773;51.192;7.024;2023-02-05T20:56:10;4.40;99.90
13405;DHT22;6773;51.192;7.024;2023-02-05T20:58:37;4.40;99.90
13405;DHT22;6773;51.192;7.024;2023-02-05T21:01:12;4.40;99.90
13405;DHT22;6773;51.192;7.024;2023-02-05T21:03:42;4.30;99.90
13405;DHT22;6773;51.192;7.024;2023-02-05T21:06:08;4.30;99.90
13405;DHT22;6773;51.192;7.024;2023-02-05T21:08:37;4.30;99.90
13405;DHT22;6773;51.192;7.024;2023-02-05T21:11:04;4.30;99.90
13405;DHT22;6773;51.192;7.024;2023-02-05T21:13:31;4.20;99.90
13405;DHT22;6773;51.192;7.024;2023-02-05T21:15:58;4.30;99.90
13405;DHT22;6773;51.192;7.024;2023-02-05T21:18:25;4.30;99.90
13405;DHT22;6773;51.192;7.024;2023-02-05T21:23:18;4.30;99.90